Time,TemperatureF,DewpointF,PressureIn,WindDirection,WindDirectionDegrees,WindSpeedMPH,WindSpeedGustMPH,Humidity,HourlyPrecipIn,Conditions,Clouds,dailyrainin,SoftwareType,DateUTC
2013-09-28 00:02:00,49.6,49.6,30.00,South,176,0.0,0.0,100,0.00,,,0.00,VWS V13.01,2013-09-28 04:02:00,
2013-09-28 00:04:00,49.8,49.8,30.00,South,176,0.0,0.0,100,0.00,,,0.00,VWS V13.01,2013-09-28 04:04:00,
2013-09-28 00:08:00,49.8,49.8,30.00,South,176,0.0,0.0,100,0.00,,,0.00,VWS V13.01,2013-09-28 04:08:00,
2013-09-28 00:14:00,49.5,49.5,30.00,South,176,0.0,0.0,100,0.00,,,0.00,VWS V13.01,2013-09-28 04:14:00,
2013-09-28 00:18:00,49.5,49.5,30.00,South,176,0.0,0.0,100,0.00,,,0.00,VWS V13.01,2013-09-28 04:18:00,
2013-09-28 00:24:00,49.3,49.3,30.00,South,176,0.0,0.0,100,0.00,,,0.00,VWS V13.01,2013-09-28 04:24:00,
2013-09-28 00:30:00,49.3,49.3,30.00,South,176,0.0,0.0,100,0.00,,,0.00,VWS V13.01,2013-09-28 04:30:00,
2013-09-28 00:36:00,49.3,49.3,30.00,South,176,0.0,0.0,100,0.00,,,0.00,VWS V13.01,2013-09-28 04:36:00,
2013-09-28 00:42:00,49.1,49.1,30.00,South,176,0.0,0.0,100,0.00,,,0.00,VWS V13.01,2013-09-28 04:42:00,
2013-09-28 00:48:00,48.9,48.9,30.00,South,176,0.0,0.0,100,0.00,,,0.00,VWS V13.01,2013-09-28 04:48:00,
2013-09-28 00:54:00,48.9,48.9,30.00,South,176,0.0,0.0,100,0.00,,,0.00,VWS V13.01,2013-09-28 04:54:00,
2013-09-28 01:00:00,48.9,48.9,30.00,South,176,0.0,0.0,100,0.00,,,0.00,VWS V13.01,2013-09-28 05:00:00,
2013-09-28 01:06:00,48.9,48.9,30.00,South,176,0.0,0.0,100,0.00,,,0.00,VWS V13.01,2013-09-28 05:06:00,
2013-09-28 01:12:00,48.7,48.7,30.00,South,176,0.0,0.0,100,0.00,,,0.00,VWS V13.01,2013-09-28 05:12:00,
2013-09-28 01:18:00,48.4,48.4,30.00,South,176,0.0,0.0,100,0.00,,,0.00,VWS V13.01,2013-09-28 05:18:00,
2013-09-28 01:24:00,48.4,48.4,30.00,South,176,0.0,0.0,100,0.00,,,0.00,VWS V13.01,2013-09-28 05:24:00,
2013-09-28 01:30:00,48.6,48.6,30.00,South,176,0.0,0.0,100,0.00,,,0.00,VWS V13.01,2013-09-28 05:30:00,
2013-09-28 01:36:00,48.6,48.6,30.00,South,176,0.0,0.0,100,0.00,,,0.00,VWS V13.01,2013-09-28 05:36:00,
2013-09-28 01:42:00,48.4,48.4,30.00,South,176,0.0,0.0,100,0.00,,,0.00,VWS V13.01,2013-09-28 05:42:00,
2013-09-28 01:48:00,48.2,48.2,30.00,South,176,0.0,0.0,100,0.00,,,0.00,VWS V13.01,2013-09-28 05:48:00,
2013-09-28 01:54:00,48.0,48.0,30.00,South,176,0.0,0.0,100,0.00,,,0.00,VWS V13.01,2013-09-28 05:54:00,
2013-09-28 02:00:00,48.0,48.0,30.00,South,176,0.0,0.0,100,0.00,,,0.00,VWS V13.01,2013-09-28 06:00:00,
2013-09-28 02:06:00,48.2,48.2,30.00,South,176,0.0,0.0,100,0.00,,,0.00,VWS V13.01,2013-09-28 06:06:00,
2013-09-28 02:12:00,48.0,48.0,30.00,South,176,0.0,0.0,100,0.00,,,0.00,VWS V13.01,2013-09-28 06:12:00,
2013-09-28 02:18:00,48.2,48.2,30.00,South,176,0.0,0.0,100,0.00,,,0.00,VWS V13.01,2013-09-28 06:18:00,
2013-09-28 02:24:00,47.8,47.8,30.03,South,176,0.0,0.0,100,0.00,,,0.00,VWS V13.01,2013-09-28 06:24:00,
2013-09-28 02:30:00,47.3,47.3,30.03,South,176,0.0,0.0,100,0.00,,,0.00,VWS V13.01,2013-09-28 06:30:00,
2013-09-28 02:36:00,47.3,47.3,30.03,South,176,0.0,0.0,100,0.00,,,0.00,VWS V13.01,2013-09-28 06:36:00,
2013-09-28 02:42:00,47.1,47.1,30.03,South,176,0.0,0.0,100,0.00,,,0.00,VWS V13.01,2013-09-28 06:42:00,
2013-09-28 02:48:00,47.3,47.3,30.03,South,176,0.0,0.0,100,0.00,,,0.00,VWS V13.01,2013-09-28 06:48:00,
2013-09-28 02:54:00,47.3,47.3,30.00,South,176,0.0,0.0,100,0.00,,,0.00,VWS V13.01,2013-09-28 06:54:00,
2013-09-28 03:00:00,47.5,47.5,30.00,South,176,0.0,0.0,100,0.00,,,0.00,VWS V13.01,2013-09-28 07:00:00,
2013-09-28 03:06:00,47.3,47.3,30.03,South,176,0.0,0.0,100,0.00,,,0.00,VWS V13.01,2013-09-28 07:06:00,
2013-09-28 03:12:00,47.5,47.5,30.03,South,176,0.0,0.0,100,0.00,,,0.00,VWS V13.01,2013-09-28 07:12:00,
2013-09-28 03:18:00,47.1,47.1,30.03,South,176,0.0,0.0,100,0.00,,,0.00,VWS V13.01,2013-09-28 07:18:00,
2013-09-28 03:24:00,47.1,47.1,30.03,South,176,0.0,0.0,100,0.00,,,0.00,VWS V13.01,2013-09-28 07:24:00,
2013-09-28 03:30:00,46.8,46.8,30.03,South,176,0.0,0.0,100,0.00,,,0.00,VWS V13.01,2013-09-28 07:30:00,
2013-09-28 03:36:00,46.6,46.6,30.03,South,176,0.0,0.0,100,0.00,,,0.00,VWS V13.01,2013-09-28 07:36:00,
2013-09-28 03:42:00,46.8,46.8,30.03,South,176,0.0,0.0,100,0.00,,,0.00,VWS V13.01,2013-09-28 07:42:00,
2013-09-28 03:48:00,46.8,46.8,30.03,South,176,0.0,0.0,100,0.00,,,0.00,VWS V13.01,2013-09-28 07:48:00,
2013-09-28 03:54:00,46.4,46.4,30.03,South,176,0.0,0.0,100,0.00,,,0.00,VWS V13.01,2013-09-28 07:54:00,
2013-09-28 04:00:00,46.0,46.0,30.03,South,176,0.0,0.0,100,0.00,,,0.00,VWS V13.01,2013-09-28 08:00:00,
2013-09-28 04:06:00,46.2,46.2,30.03,South,176,0.0,0.0,100,0.00,,,0.00,VWS V13.01,2013-09-28 08:06:00,
2013-09-28 04:12:00,46.2,46.2,30.03,South,176,0.0,0.0,100,0.00,,,0.00,VWS V13.01,2013-09-28 08:12:00,
2013-09-28 04:18:00,46.2,46.2,30.03,South,176,0.0,0.0,100,0.00,,,0.00,VWS V13.01,2013-09-28 08:18:00,
2013-09-28 04:24:00,45.9,45.9,30.03,South,176,0.0,0.0,100,0.00,,,0.00,VWS V13.01,2013-09-28 08:24:00,
2013-09-28 04:32:00,45.9,45.9,30.03,South,176,0.0,0.0,100,0.00,,,0.00,VWS V13.01,2013-09-28 08:32:00,
2013-09-28 04:38:00,46.0,46.0,30.03,South,176,0.0,0.0,100,0.00,,,0.00,VWS V13.01,2013-09-28 08:38:00,
2013-09-28 04:44:00,46.0,46.0,30.03,South,176,0.0,0.0,100,0.00,,,0.00,VWS V13.01,2013-09-28 08:44:00,
2013-09-28 04:50:00,45.7,45.7,30.03,South,176,0.0,0.0,100,0.00,,,0.00,VWS V13.01,2013-09-28 08:50:00,
2013-09-28 04:56:00,45.5,45.5,30.03,South,176,0.0,0.0,100,0.00,,,0.00,VWS V13.01,2013-09-28 08:56:00,
2013-09-28 05:02:00,45.7,45.7,30.03,South,176,0.0,0.0,100,0.00,,,0.00,VWS V13.01,2013-09-28 09:02:00,
2013-09-28 05:08:00,45.9,45.9,30.03,South,176,0.0,0.0,100,0.00,,,0.00,VWS V13.01,2013-09-28 09:08:00,
2013-09-28 05:14:00,45.5,45.5,30.03,South,176,0.0,0.0,100,0.00,,,0.00,VWS V13.01,2013-09-28 09:14:00,
2013-09-28 05:20:00,45.7,45.7,30.03,South,176,0.0,0.0,100,0.00,,,0.00,VWS V13.01,2013-09-28 09:20:00,
2013-09-28 05:26:00,45.7,45.7,30.03,South,176,0.0,0.0,100,0.00,,,0.00,VWS V13.01,2013-09-28 09:26:00,
2013-09-28 05:32:00,45.7,45.7,30.03,South,176,0.0,0.0,100,0.00,,,0.00,VWS V13.01,2013-09-28 09:32:00,
2013-09-28 05:38:00,45.3,45.3,30.03,South,176,0.0,0.0,100,0.00,,,0.00,VWS V13.01,2013-09-28 09:38:00,
2013-09-28 05:44:00,45.1,45.1,30.03,South,176,0.0,0.0,100,0.00,,,0.00,VWS V13.01,2013-09-28 09:44:00,
2013-09-28 05:50:00,45.0,45.0,30.03,South,176,0.0,0.0,100,0.00,,,0.00,VWS V13.01,2013-09-28 09:50:00,
2013-09-28 05:56:00,45.0,45.0,30.03,South,176,0.0,0.0,100,0.00,,,0.00,VWS V13.01,2013-09-28 09:56:00,
2013-09-28 06:02:00,45.3,45.3,30.03,South,176,0.0,0.0,100,0.00,,,0.00,VWS V13.01,2013-09-28 10:02:00,
2013-09-28 06:08:00,45.1,45.1,30.03,South,176,0.0,0.0,100,0.00,,,0.00,VWS V13.01,2013-09-28 10:08:00,
2013-09-28 06:14:00,44.8,44.8,30.03,South,176,0.0,0.0,100,0.00,,,0.00,VWS V13.01,2013-09-28 10:14:00,
2013-09-28 06:20:00,44.4,44.4,30.03,South,176,0.0,0.0,100,0.00,,,0.00,VWS V13.01,2013-09-28 10:20:00,
2013-09-28 06:26:00,44.4,44.4,30.03,South,176,0.0,0.0,100,0.00,,,0.00,VWS V13.01,2013-09-28 10:26:00,
2013-09-28 06:32:00,44.2,44.2,30.03,South,176,0.0,0.0,100,0.00,,,0.00,VWS V13.01,2013-09-28 10:32:00,
2013-09-28 06:38:00,44.2,44.2,30.06,South,176,0.0,0.0,100,0.00,,,0.00,VWS V13.01,2013-09-28 10:38:00,
2013-09-28 06:44:00,44.6,44.6,30.06,South,176,0.0,0.0,100,0.00,,,0.00,VWS V13.01,2013-09-28 10:44:00,
2013-09-28 06:50:00,44.6,44.6,30.06,South,176,0.0,0.0,100,0.00,,,0.00,VWS V13.01,2013-09-28 10:50:00,
2013-09-28 06:56:00,44.6,44.6,30.06,South,176,0.0,0.0,100,0.00,,,0.00,VWS V13.01,2013-09-28 10:56:00,
2013-09-28 07:02:00,44.2,44.2,30.06,South,176,0.0,0.0,100,0.00,,,0.00,VWS V13.01,2013-09-28 11:02:00,
2013-09-28 07:08:00,44.2,44.2,30.06,South,176,0.0,0.0,100,0.00,,,0.00,VWS V13.01,2013-09-28 11:08:00,
2013-09-28 07:14:00,44.6,44.6,30.06,South,176,0.0,0.0,100,0.00,,,0.00,VWS V13.01,2013-09-28 11:14:00,
2013-09-28 07:20:00,45.5,45.5,30.06,South,176,0.0,0.0,100,0.00,,,0.00,VWS V13.01,2013-09-28 11:20:00,
2013-09-28 07:26:00,45.9,45.9,30.06,South,176,0.0,0.0,100,0.00,,,0.00,VWS V13.01,2013-09-28 11:26:00,
2013-09-28 07:32:00,46.6,46.6,30.06,South,176,0.0,0.0,100,0.00,,,0.00,VWS V13.01,2013-09-28 11:32:00,
2013-09-28 07:38:00,50.0,50.0,30.06,South,176,0.0,0.0,100,0.00,,,0.00,VWS V13.01,2013-09-28 11:38:00,
2013-09-28 07:44:00,52.5,52.5,30.06,South,176,0.0,0.0,100,0.00,,,0.00,VWS V13.01,2013-09-28 11:44:00,
2013-09-28 07:50:00,54.1,54.1,30.06,South,176,0.0,0.0,100,0.00,,,0.00,VWS V13.01,2013-09-28 11:50:00,
2013-09-28 07:56:00,55.2,55.2,30.06,South,176,0.0,0.0,100,0.00,,,0.00,VWS V13.01,2013-09-28 11:56:00,
2013-09-28 08:02:00,56.8,56.8,30.06,South,176,0.0,0.0,100,0.00,,,0.00,VWS V13.01,2013-09-28 12:02:00,
2013-09-28 08:08:00,57.6,57.6,30.06,South,176,0.0,0.0,100,0.00,,,0.00,VWS V13.01,2013-09-28 12:08:00,
2013-09-28 08:14:00,58.6,58.6,30.06,South,176,0.0,0.0,100,0.00,,,0.00,VWS V13.01,2013-09-28 12:14:00,
2013-09-28 08:20:00,59.5,59.5,30.06,South,176,0.0,0.0,100,0.00,,,0.00,VWS V13.01,2013-09-28 12:20:00,
2013-09-28 08:26:00,60.1,60.1,30.06,South,176,0.0,0.0,100,0.00,,,0.00,VWS V13.01,2013-09-28 12:26:00,
2013-09-28 08:32:00,61.0,61.0,30.06,West,272,0.0,0.0,100,0.00,,,0.00,VWS V13.01,2013-09-28 12:32:00,
2013-09-28 08:38:00,60.6,60.6,30.06,West,272,0.0,0.0,100,0.00,,,0.00,VWS V13.01,2013-09-28 12:38:00,
2013-09-28 08:44:00,61.9,61.9,30.06,NW,316,0.0,0.0,100,0.00,,,0.00,VWS V13.01,2013-09-28 12:44:00,
2013-09-28 08:50:00,59.0,59.0,30.06,NNE,15,4.7,8.1,100,0.00,,,0.00,VWS V13.01,2013-09-28 12:50:00,
2013-09-28 08:56:00,63.7,63.7,30.06,North,1,0.0,0.0,100,0.00,,,0.00,VWS V13.01,2013-09-28 12:56:00,
2013-09-28 09:02:00,64.4,64.4,30.06,West,259,0.0,0.0,100,0.00,,,0.00,VWS V13.01,2013-09-28 13:02:00,
2013-09-28 09:08:00,63.9,63.9,30.06,North,353,0.0,0.0,100,0.00,,,0.00,VWS V13.01,2013-09-28 13:08:00,
2013-09-28 09:14:00,67.3,67.3,30.06,NNE,15,0.0,0.0,100,0.00,,,0.00,VWS V13.01,2013-09-28 13:14:00,
2013-09-28 09:20:00,64.6,64.6,30.06,NNE,13,4.7,8.1,100,0.00,,,0.00,VWS V13.01,2013-09-28 13:20:00,
2013-09-28 09:26:00,64.8,64.8,30.06,North,357,0.0,7.2,100,0.00,,,0.00,VWS V13.01,2013-09-28 13:26:00,
2013-09-28 09:32:00,66.9,64.5,30.06,North,353,0.0,0.0,92,0.00,,,0.00,VWS V13.01,2013-09-28 13:32:00,
2013-09-28 09:38:00,66.6,64.2,30.06,North,357,4.7,7.2,92,0.00,,,0.00,VWS V13.01,2013-09-28 13:38:00,
2013-09-28 09:44:00,65.8,59.5,30.06,NNW,343,7.4,9.8,80,0.00,,,0.00,VWS V13.01,2013-09-28 13:44:00,
2013-09-28 09:50:00,66.2,62.5,30.09,North,10,4.0,8.1,88,0.00,,,0.00,VWS V13.01,2013-09-28 13:50:00,
2013-09-28 09:56:00,71.2,63.3,30.09,NE,47,0.0,8.1,76,0.00,,,0.00,VWS V13.01,2013-09-28 13:56:00,
2013-09-28 10:02:00,68.9,57.9,30.09,NNE,28,5.4,7.2,68,0.00,,,0.00,VWS V13.01,2013-09-28 14:02:00,
2013-09-28 10:08:00,69.3,58.3,30.06,NNW,343,0.0,0.0,68,0.00,,,0.00,VWS V13.01,2013-09-28 14:08:00,
2013-09-28 10:14:00,72.0,59.1,30.06,WNW,298,4.0,7.2,64,0.00,,,0.00,VWS V13.01,2013-09-28 14:14:00,
2013-09-28 10:20:00,68.9,57.9,30.06,North,353,4.7,7.2,68,0.00,,,0.00,VWS V13.01,2013-09-28 14:20:00,
2013-09-28 10:26:00,74.8,61.9,30.06,NNW,342,0.0,0.0,64,0.00,,,0.00,VWS V13.01,2013-09-28 14:26:00,
2013-09-28 10:32:00,74.8,61.9,30.06,WNW,295,0.0,0.0,64,0.00,,,0.00,VWS V13.01,2013-09-28 14:32:00,
2013-09-28 10:38:00,71.4,60.3,30.06,North,349,5.4,8.1,68,0.00,,,0.00,VWS V13.01,2013-09-28 14:38:00,
2013-09-28 10:44:00,72.5,59.6,30.06,NE,42,3.4,7.2,64,0.00,,,0.00,VWS V13.01,2013-09-28 14:44:00,
2013-09-28 10:50:00,73.0,60.2,30.06,NW,311,4.0,9.8,64,0.00,,,0.00,VWS V13.01,2013-09-28 14:50:00,
2013-09-28 10:56:00,76.6,61.7,30.06,WSW,258,0.0,6.3,60,0.00,,,0.00,VWS V13.01,2013-09-28 14:56:00,
2013-09-28 11:02:00,72.7,59.8,30.06,NNE,20,5.4,9.8,64,0.00,,,0.00,VWS V13.01,2013-09-28 15:02:00,
2013-09-28 11:08:00,74.8,61.9,30.06,NNW,344,8.7,11.6,64,0.00,,,0.00,VWS V13.01,2013-09-28 15:08:00,
2013-09-28 11:14:00,72.1,59.3,30.06,North,10,6.7,12.5,64,0.00,,,0.00,VWS V13.01,2013-09-28 15:14:00,
2013-09-28 11:20:00,70.0,59.0,30.06,NNE,23,4.7,10.7,68,0.00,,,0.00,VWS V13.01,2013-09-28 15:20:00,
2013-09-28 11:26:00,73.6,60.7,30.06,NNE,29,0.0,12.5,64,0.00,,,0.00,VWS V13.01,2013-09-28 15:26:00,
2013-09-28 11:32:00,77.0,62.1,30.06,North,357,4.0,8.1,60,0.00,,,0.00,VWS V13.01,2013-09-28 15:32:00,
2013-09-28 11:38:00,76.6,61.7,30.06,WSW,256,4.0,6.3,60,0.00,,,0.00,VWS V13.01,2013-09-28 15:38:00,
2013-09-28 11:44:00,79.2,64.1,30.06,SSW,199,3.4,8.1,60,0.00,,,0.00,VWS V13.01,2013-09-28 15:44:00,
2013-09-28 11:50:00,78.8,63.8,30.06,NNW,331,4.7,10.7,60,0.00,,,0.00,VWS V13.01,2013-09-28 15:50:00,
2013-09-28 11:56:00,75.0,62.0,30.06,NE,34,8.1,10.7,64,0.00,,,0.00,VWS V13.01,2013-09-28 15:56:00,
2013-09-28 12:02:00,80.1,64.9,30.06,SSW,192,0.0,0.0,60,0.00,,,0.00,VWS V13.01,2013-09-28 16:02:00,
2013-09-28 12:08:00,78.1,63.1,30.06,NW,318,6.0,8.1,60,0.00,,,0.00,VWS V13.01,2013-09-28 16:08:00,
2013-09-28 12:14:00,78.1,63.1,30.06,NNW,329,0.0,8.1,60,0.00,,,0.00,VWS V13.01,2013-09-28 16:14:00,
2013-09-28 12:20:00,81.9,64.6,30.06,WSW,249,0.0,0.0,56,0.00,,,0.00,VWS V13.01,2013-09-28 16:20:00,
2013-09-28 12:26:00,81.1,64.0,30.06,WNW,298,7.4,9.8,56,0.00,,,0.00,VWS V13.01,2013-09-28 16:26:00,
2013-09-28 12:32:00,80.6,63.5,30.06,WNW,294,4.7,11.6,56,0.00,,,0.00,VWS V13.01,2013-09-28 16:32:00,
2013-09-28 12:38:00,81.1,64.0,30.03,WNW,285,6.0,8.1,56,0.00,,,0.00,VWS V13.01,2013-09-28 16:38:00,
2013-09-28 12:44:00,80.2,65.1,30.03,WNW,290,4.7,8.1,60,0.00,,,0.00,VWS V13.01,2013-09-28 16:44:00,
2013-09-28 12:50:00,81.9,64.6,30.03,WSW,257,0.0,5.4,56,0.00,,,0.00,VWS V13.01,2013-09-28 16:50:00,
2013-09-28 12:56:00,80.6,63.5,30.03,West,270,4.0,10.7,56,0.00,,,0.00,VWS V13.01,2013-09-28 16:56:00,
2013-09-28 13:02:00,80.8,63.6,30.03,NW,318,6.0,8.1,56,0.00,,,0.00,VWS V13.01,2013-09-28 17:02:00,
2013-09-28 13:08:00,78.1,59.0,30.03,NNE,14,4.7,9.8,52,0.00,,,0.00,VWS V13.01,2013-09-28 17:08:00,
2013-09-28 13:14:00,81.9,64.6,30.03,West,264,4.7,10.7,56,0.00,,,0.00,VWS V13.01,2013-09-28 17:14:00,
2013-09-28 13:20:00,81.1,64.0,30.03,NNW,342,7.4,11.6,56,0.00,,,0.00,VWS V13.01,2013-09-28 17:20:00,
2013-09-28 13:26:00,80.6,63.5,30.03,WNW,300,8.1,12.5,56,0.00,,,0.00,VWS V13.01,2013-09-28 17:26:00,
2013-09-28 13:32:00,83.3,66.0,30.03,North,353,4.0,8.1,56,0.00,,,0.00,VWS V13.01,2013-09-28 17:32:00,
2013-09-28 13:38:00,83.5,66.2,30.03,NW,326,4.7,8.1,56,0.00,,,0.00,VWS V13.01,2013-09-28 17:38:00,
2013-09-28 13:44:00,82.9,65.7,30.03,South,185,0.0,0.0,56,0.00,,,0.00,VWS V13.01,2013-09-28 17:44:00,
2013-09-28 13:50:00,84.2,64.7,30.00,WSW,243,8.1,10.7,52,0.00,,,0.00,VWS V13.01,2013-09-28 17:50:00,
2013-09-28 13:56:00,83.5,66.2,30.00,SSW,197,4.0,10.7,56,0.00,,,0.00,VWS V13.01,2013-09-28 17:56:00,
2013-09-28 14:02:00,83.5,66.2,30.00,South,175,0.0,0.0,56,0.00,,,0.00,VWS V13.01,2013-09-28 18:02:00,
2013-09-28 14:08:00,80.4,65.3,30.00,NNE,16,6.0,12.5,60,0.00,,,0.00,VWS V13.01,2013-09-28 18:08:00,
2013-09-28 14:14:00,82.6,58.5,30.00,NE,40,0.0,8.1,44,0.00,,,0.00,VWS V13.01,2013-09-28 18:14:00,
2013-09-28 14:20:00,79.3,64.3,30.00,SSW,205,6.0,8.9,60,0.00,,,0.00,VWS V13.01,2013-09-28 18:20:00,
2013-09-28 14:26:00,79.5,64.4,30.00,SSW,211,4.7,8.1,60,0.00,,,0.00,VWS V13.01,2013-09-28 18:26:00,
2013-09-28 14:32:00,79.5,64.4,30.00,SW,214,3.4,8.1,60,0.00,,,0.00,VWS V13.01,2013-09-28 18:32:00,
2013-09-28 14:38:00,77.2,58.2,30.00,South,191,8.1,11.6,52,0.00,,,0.00,VWS V13.01,2013-09-28 18:38:00,
2013-09-28 14:44:00,83.5,66.2,30.00,South,191,0.0,4.5,56,0.00,,,0.00,VWS V13.01,2013-09-28 18:44:00,
2013-09-28 14:50:00,83.7,66.3,30.00,SSW,209,0.0,8.1,56,0.00,,,0.00,VWS V13.01,2013-09-28 18:50:00,
2013-09-28 14:56:00,81.1,64.0,30.00,WSW,258,4.0,9.8,56,0.00,,,0.00,VWS V13.01,2013-09-28 18:56:00,
2013-09-28 15:02:00,82.2,60.6,30.00,NW,314,6.0,11.6,48,0.00,,,0.00,VWS V13.01,2013-09-28 19:02:00,
2013-09-28 15:08:00,83.7,66.3,30.00,SW,218,4.0,9.8,56,0.00,,,0.00,VWS V13.01,2013-09-28 19:08:00,
2013-09-28 15:14:00,82.9,58.8,30.00,North,353,0.0,7.2,44,0.00,,,0.00,VWS V13.01,2013-09-28 19:14:00,
2013-09-28 15:20:00,82.6,65.3,30.00,NW,326,6.0,10.7,56,0.00,,,0.00,VWS V13.01,2013-09-28 19:20:00,
2013-09-28 15:26:00,84.2,64.7,30.00,WNW,303,5.4,9.8,52,0.00,,,0.00,VWS V13.01,2013-09-28 19:26:00,
2013-09-28 15:32:00,83.8,66.5,30.00,NW,313,5.4,7.2,56,0.00,,,0.00,VWS V13.01,2013-09-28 19:32:00,
2013-09-28 15:38:00,83.7,66.3,30.00,North,3,7.4,11.6,56,0.00,,,0.00,VWS V13.01,2013-09-28 19:38:00,
2013-09-28 15:44:00,84.7,65.2,30.00,NW,305,4.7,8.1,52,0.00,,,0.00,VWS V13.01,2013-09-28 19:44:00,
2013-09-28 15:50:00,83.1,65.8,30.00,NNW,328,8.1,10.7,56,0.00,,,0.00,VWS V13.01,2013-09-28 19:50:00,
2013-09-28 15:56:00,82.8,65.5,30.00,SW,233,0.0,6.3,56,0.00,,,0.00,VWS V13.01,2013-09-28 19:56:00,
2013-09-28 16:02:00,83.5,66.2,30.00,West,276,4.0,10.7,56,0.00,,,0.00,VWS V13.01,2013-09-28 20:02:00,
2013-09-28 16:08:00,82.0,64.8,30.00,North,349,5.4,7.2,56,0.00,,,0.00,VWS V13.01,2013-09-28 20:08:00,
2013-09-28 16:14:00,83.3,66.0,30.00,NW,306,3.4,9.8,56,0.00,,,0.00,VWS V13.01,2013-09-28 20:14:00,
2013-09-28 16:20:00,80.6,59.1,29.97,North,2,7.4,11.6,48,0.00,,,0.00,VWS V13.01,2013-09-28 20:20:00,
2013-09-28 16:26:00,81.1,59.6,29.97,NW,324,4.7,7.2,48,0.00,,,0.00,VWS V13.01,2013-09-28 20:26:00,
2013-09-28 16:32:00,81.5,64.3,29.97,NW,315,0.0,6.3,56,0.00,,,0.00,VWS V13.01,2013-09-28 20:32:00,
2013-09-28 16:38:00,80.4,65.3,29.97,SSW,213,0.0,6.3,60,0.00,,,0.00,VWS V13.01,2013-09-28 20:38:00,
2013-09-28 16:44:00,82.8,65.5,29.97,North,2,0.0,5.4,56,0.00,,,0.00,VWS V13.01,2013-09-28 20:44:00,
2013-09-28 16:50:00,81.3,59.8,29.97,NNW,340,4.7,9.8,48,0.00,,,0.00,VWS V13.01,2013-09-28 20:50:00,
2013-09-28 16:56:00,79.0,57.6,29.97,West,265,4.0,8.1,48,0.00,,,0.00,VWS V13.01,2013-09-28 20:56:00,
2013-09-28 17:02:00,81.3,59.8,29.97,NNW,344,0.0,7.2,48,0.00,,,0.00,VWS V13.01,2013-09-28 21:02:00,
2013-09-28 17:08:00,79.2,57.8,29.97,SW,234,5.4,8.1,48,0.00,,,0.00,VWS V13.01,2013-09-28 21:08:00,
2013-09-28 17:14:00,80.2,58.8,29.97,WNW,300,0.0,7.2,48,0.00,,,0.00,VWS V13.01,2013-09-28 21:14:00,
2013-09-28 17:20:00,79.3,58.0,29.97,WNW,283,4.0,8.1,48,0.00,,,0.00,VWS V13.01,2013-09-28 21:20:00,
2013-09-28 17:26:00,79.2,57.8,29.97,NNW,348,6.0,9.8,48,0.00,,,0.00,VWS V13.01,2013-09-28 21:26:00,
2013-09-28 17:32:00,79.0,57.6,29.97,NNW,334,4.7,6.3,48,0.00,,,0.00,VWS V13.01,2013-09-28 21:32:00,
2013-09-28 17:38:00,78.3,59.2,29.97,NW,311,0.0,7.2,52,0.00,,,0.00,VWS V13.01,2013-09-28 21:38:00,
2013-09-28 17:44:00,77.9,58.9,29.97,NW,320,3.4,9.8,52,0.00,,,0.00,VWS V13.01,2013-09-28 21:44:00,
2013-09-28 17:50:00,77.0,58.0,29.97,NNW,331,0.0,5.4,52,0.00,,,0.00,VWS V13.01,2013-09-28 21:50:00,
2013-09-28 17:56:00,76.8,57.9,29.97,NNW,331,0.0,0.0,52,0.00,,,0.00,VWS V13.01,2013-09-28 21:56:00,
2013-09-28 18:02:00,75.9,57.0,29.97,NNW,331,0.0,0.0,52,0.00,,,0.00,VWS V13.01,2013-09-28 22:02:00,
2013-09-28 18:08:00,74.8,56.0,29.97,NW,317,0.0,0.0,52,0.00,,,0.00,VWS V13.01,2013-09-28 22:08:00,
2013-09-28 18:14:00,73.6,54.9,29.97,NW,317,0.0,0.0,52,0.00,,,0.00,VWS V13.01,2013-09-28 22:14:00,
2013-09-28 18:20:00,72.3,55.8,29.97,NW,317,0.0,0.0,56,0.00,,,0.00,VWS V13.01,2013-09-28 22:20:00,
2013-09-28 18:26:00,69.1,54.6,29.97,NW,317,0.0,0.0,60,0.00,,,0.00,VWS V13.01,2013-09-28 22:26:00,
2013-09-28 18:32:00,65.5,51.2,29.97,NW,317,0.0,0.0,60,0.00,,,0.00,VWS V13.01,2013-09-28 22:32:00,
2013-09-28 18:38:00,62.8,53.6,29.97,NW,317,0.0,0.0,72,0.00,,,0.00,VWS V13.01,2013-09-28 22:38:00,
2013-09-28 18:44:00,61.0,59.8,29.97,NW,317,0.0,0.0,96,0.00,,,0.00,VWS V13.01,2013-09-28 22:44:00,
2013-09-28 18:50:00,59.5,59.5,29.97,NW,317,0.0,0.0,100,0.00,,,0.00,VWS V13.01,2013-09-28 22:50:00,
2013-09-28 18:56:00,58.3,58.3,29.97,NW,317,0.0,0.0,100,0.00,,,0.00,VWS V13.01,2013-09-28 22:56:00,
2013-09-28 19:02:00,57.4,57.4,29.97,NW,317,0.0,0.0,100,0.00,,,0.00,VWS V13.01,2013-09-28 23:02:00,
2013-09-28 19:08:00,56.7,56.7,29.94,NW,317,0.0,0.0,100,0.00,,,0.00,VWS V13.01,2013-09-28 23:08:00,
2013-09-28 19:14:00,56.1,56.1,29.94,NW,317,0.0,0.0,100,0.00,,,0.00,VWS V13.01,2013-09-28 23:14:00,
2013-09-28 19:20:00,56.8,56.8,29.94,NW,317,0.0,0.0,100,0.00,,,0.00,VWS V13.01,2013-09-28 23:20:00,
2013-09-28 19:26:00,55.9,55.9,29.94,NW,317,0.0,0.0,100,0.00,,,0.00,VWS V13.01,2013-09-28 23:26:00,
2013-09-28 19:32:00,55.2,55.2,29.94,NW,317,0.0,0.0,100,0.00,,,0.00,VWS V13.01,2013-09-28 23:32:00,
2013-09-28 19:38:00,54.9,54.9,29.94,NW,317,0.0,0.0,100,0.00,,,0.00,VWS V13.01,2013-09-28 23:38:00,
2013-09-28 19:44:00,55.9,55.9,29.94,NW,317,0.0,0.0,100,0.00,,,0.00,VWS V13.01,2013-09-28 23:44:00,
2013-09-28 19:50:00,55.6,55.6,29.94,NW,317,0.0,0.0,100,0.00,,,0.00,VWS V13.01,2013-09-28 23:50:00,
2013-09-28 19:56:00,55.4,55.4,29.94,NW,317,0.0,0.0,100,0.00,,,0.00,VWS V13.01,2013-09-28 23:56:00,
2013-09-28 20:02:00,54.5,54.5,29.94,NW,317,0.0,0.0,100,0.00,,,0.00,VWS V13.01,2013-09-29 00:02:00,
2013-09-28 20:08:00,54.0,54.0,29.94,NW,317,0.0,0.0,100,0.00,,,0.00,VWS V13.01,2013-09-29 00:08:00,
2013-09-28 20:14:00,54.0,54.0,29.94,NW,317,0.0,0.0,100,0.00,,,0.00,VWS V13.01,2013-09-29 00:14:00,
2013-09-28 20:20:00,54.3,54.3,29.94,NW,317,0.0,0.0,100,0.00,,,0.00,VWS V13.01,2013-09-29 00:20:00,
2013-09-28 20:26:00,53.4,53.4,29.94,NW,317,0.0,0.0,100,0.00,,,0.00,VWS V13.01,2013-09-29 00:26:00,
2013-09-28 20:32:00,53.4,53.4,29.94,NW,317,0.0,0.0,100,0.00,,,0.00,VWS V13.01,2013-09-29 00:32:00,
2013-09-28 20:38:00,53.1,53.1,29.94,NW,317,0.0,0.0,100,0.00,,,0.00,VWS V13.01,2013-09-29 00:38:00,
2013-09-28 20:44:00,52.9,52.9,29.94,NW,317,0.0,0.0,100,0.00,,,0.00,VWS V13.01,2013-09-29 00:44:00,
2013-09-28 20:50:00,52.7,52.7,29.94,NW,317,0.0,0.0,100,0.00,,,0.00,VWS V13.01,2013-09-29 00:50:00,
2013-09-28 20:56:00,52.5,52.5,29.94,NW,317,0.0,0.0,100,0.00,,,0.00,VWS V13.01,2013-09-29 00:56:00,
2013-09-28 21:02:00,52.5,52.5,29.94,NW,317,0.0,0.0,100,0.00,,,0.00,VWS V13.01,2013-09-29 01:02:00,
2013-09-28 21:08:00,52.5,52.5,29.94,NW,317,0.0,0.0,100,0.00,,,0.00,VWS V13.01,2013-09-29 01:08:00,
2013-09-28 21:14:00,52.5,52.5,29.94,NW,317,0.0,0.0,100,0.00,,,0.00,VWS V13.01,2013-09-29 01:14:00,
2013-09-28 21:20:00,52.5,52.5,29.94,NW,317,0.0,0.0,100,0.00,,,0.00,VWS V13.01,2013-09-29 01:20:00,
2013-09-28 21:26:00,52.3,52.3,29.94,NW,317,0.0,0.0,100,0.00,,,0.00,VWS V13.01,2013-09-29 01:26:00,
2013-09-28 21:32:00,52.2,52.2,29.94,NW,317,0.0,0.0,100,0.00,,,0.00,VWS V13.01,2013-09-29 01:32:00,
2013-09-28 21:38:00,51.6,51.6,29.94,NW,317,0.0,0.0,100,0.00,,,0.00,VWS V13.01,2013-09-29 01:38:00,
2013-09-28 21:44:00,51.6,51.6,29.94,NW,317,0.0,0.0,100,0.00,,,0.00,VWS V13.01,2013-09-29 01:44:00,
2013-09-28 21:50:00,51.4,51.4,29.94,NW,317,0.0,0.0,100,0.00,,,0.00,VWS V13.01,2013-09-29 01:50:00,
2013-09-28 21:56:00,51.4,51.4,29.94,NW,317,0.0,0.0,100,0.00,,,0.00,VWS V13.01,2013-09-29 01:56:00,
2013-09-28 22:02:00,51.4,51.4,29.94,NW,317,0.0,0.0,100,0.00,,,0.00,VWS V13.01,2013-09-29 02:02:00,
2013-09-28 22:08:00,51.4,51.4,29.94,NW,317,0.0,0.0,100,0.00,,,0.00,VWS V13.01,2013-09-29 02:08:00,
2013-09-28 22:14:00,51.1,51.1,29.94,NW,317,0.0,0.0,100,0.00,,,0.00,VWS V13.01,2013-09-29 02:14:00,
2013-09-28 22:20:00,51.1,51.1,29.94,NW,317,0.0,0.0,100,0.00,,,0.00,VWS V13.01,2013-09-29 02:20:00,
2013-09-28 22:26:00,51.1,51.1,29.94,NW,317,0.0,0.0,100,0.00,,,0.00,VWS V13.01,2013-09-29 02:26:00,
2013-09-28 22:32:00,50.9,50.9,29.94,NW,317,0.0,0.0,100,0.00,,,0.00,VWS V13.01,2013-09-29 02:32:00,
2013-09-28 22:38:00,50.9,50.9,29.94,NW,317,0.0,0.0,100,0.00,,,0.00,VWS V13.01,2013-09-29 02:38:00,
2013-09-28 22:44:00,50.9,50.9,29.94,NW,317,0.0,0.0,100,0.00,,,0.00,VWS V13.01,2013-09-29 02:44:00,
2013-09-28 22:50:00,50.5,50.5,29.94,NW,317,0.0,0.0,100,0.00,,,0.00,VWS V13.01,2013-09-29 02:50:00,
2013-09-28 22:56:00,50.5,50.5,29.94,NW,317,0.0,0.0,100,0.00,,,0.00,VWS V13.01,2013-09-29 02:56:00,
2013-09-28 23:02:00,50.2,50.2,29.94,NW,317,0.0,0.0,100,0.00,,,0.00,VWS V13.01,2013-09-29 03:02:00,
2013-09-28 23:08:00,50.0,50.0,29.94,NW,317,0.0,0.0,100,0.00,,,0.00,VWS V13.01,2013-09-29 03:08:00,
2013-09-28 23:14:00,50.0,50.0,29.94,NW,317,0.0,0.0,100,0.00,,,0.00,VWS V13.01,2013-09-29 03:14:00,
2013-09-28 23:20:00,50.0,50.0,29.94,NW,317,0.0,0.0,100,0.00,,,0.00,VWS V13.01,2013-09-29 03:20:00,
2013-09-28 23:26:00,49.8,49.8,29.94,NW,317,0.0,0.0,100,0.00,,,0.00,VWS V13.01,2013-09-29 03:26:00,
2013-09-28 23:32:00,49.6,49.6,29.94,NW,317,0.0,0.0,100,0.00,,,0.00,VWS V13.01,2013-09-29 03:32:00,
2013-09-28 23:38:00,49.6,49.6,29.94,NW,317,0.0,0.0,100,0.00,,,0.00,VWS V13.01,2013-09-29 03:38:00,
2013-09-28 23:44:00,49.8,49.8,29.94,NW,317,0.0,0.0,100,0.00,,,0.00,VWS V13.01,2013-09-29 03:44:00,
2013-09-28 23:50:00,50.2,50.2,29.94,NW,317,0.0,0.0,100,0.00,,,0.00,VWS V13.01,2013-09-29 03:50:00,
2013-09-28 23:56:00,49.8,49.8,29.94,NW,317,0.0,0.0,100,0.00,,,0.00,VWS V13.01,2013-09-29 03:56:00,